sensor_id;sensor_type;location;lat;lon;timestamp;P1;durP1;ratioP1;P2;durP2;ratioP2
79412;SDS011;68863;49.528;11.010;2023-03-30T00:00:59;5.40;;;1.17;;
79412;SDS011;68863;49.528;11.010;2023-03-30T00:02:01;4.28;;;0.85;;
79412;SDS011;68863;49.528;11.010;2023-03-30T00:03:03;4.80;;;1.10;;
79412;SDS011;68863;49.528;11.010;2023-03-30T00:04:03;4.07;;;0.93;;
79412;SDS011;68863;49.528;11.010;2023-03-30T00:05:03;4.23;;;0.93;;
79412;SDS011;68863;49.528;11.010;2023-03-30T00:06:05;4.32;;;1.10;;
79412;SDS011;68863;49.528;11.010;2023-03-30T00:07:06;4.90;;;1.08;;
79412;SDS011;68863;49.528;11.010;2023-03-30T00:08:07;4.45;;;1.13;;
79412;SDS011;68863;49.528;11.010;2023-03-30T00:09:07;5.20;;;1.05;;
79412;SDS011;68863;49.528;11.010;2023-03-30T00:10:09;3.95;;;0.90;;
79412;SDS011;68863;49.528;11.010;2023-03-30T00:11:11;4.55;;;1.20;;
79412;SDS011;68863;49.528;11.010;2023-03-30T00:12:14;4.85;;;0.90;;
79412;SDS011;68863;49.528;11.010;2023-03-30T00:13:19;3.90;;;1.00;;
79412;SDS011;68863;49.528;11.010;2023-03-30T00:14:19;3.57;;;0.93;;
79412;SDS011;68863;49.528;11.010;2023-03-30T00:15:22;4.90;;;1.02;;
79412;SDS011;68863;49.528;11.010;2023-03-30T00:16:23;3.50;;;0.90;;
79412;SDS011;68863;49.528;11.010;2023-03-30T00:17:23;6.68;;;1.63;;
79412;SDS011;68863;49.528;11.010;2023-03-30T00:18:23;5.28;;;0.88;;
79412;SDS011;68863;49.528;11.010;2023-03-30T00:19:25;4.40;;;1.10;;
79412;SDS011;68863;49.528;11.010;2023-03-30T00:20:26;3.17;;;0.80;;
79412;SDS011;68863;49.528;11.010;2023-03-30T00:21:26;4.63;;;1.00;;
79412;SDS011;68863;49.528;11.010;2023-03-30T00:22:27;4.13;;;0.77;;
79412;SDS011;68863;49.528;11.010;2023-03-30T00:23:27;5.13;;;1.30;;
79412;SDS011;68863;49.528;11.010;2023-03-30T00:24:28;4.05;;;0.90;;
79412;SDS011;68863;49.528;11.010;2023-03-30T00:25:29;4.30;;;0.98;;
79412;SDS011;68863;49.528;11.010;2023-03-30T00:26:29;4.88;;;1.20;;
79412;SDS011;68863;49.528;11.010;2023-03-30T00:27:29;3.92;;;0.90;;
79412;SDS011;68863;49.528;11.010;2023-03-30T00:28:30;3.78;;;0.80;;
79412;SDS011;68863;49.528;11.010;2023-03-30T00:29:30;5.60;;;1.10;;
79412;SDS011;68863;49.528;11.010;2023-03-30T00:30:31;4.78;;;1.10;;
79412;SDS011;68863;49.528;11.010;2023-03-30T00:31:31;4.97;;;1.00;;
79412;SDS011;68863;49.528;11.010;2023-03-30T00:32:31;3.85;;;0.85;;
79412;SDS011;68863;49.528;11.010;2023-03-30T00:33:33;4.40;;;1.10;;
79412;SDS011;68863;49.528;11.010;2023-03-30T00:34:33;4.40;;;0.98;;
79412;SDS011;68863;49.528;11.010;2023-03-30T00:35:34;6.10;;;1.13;;
79412;SDS011;68863;49.528;11.010;2023-03-30T00:36:34;5.15;;;1.25;;
79412;SDS011;68863;49.528;11.010;2023-03-30T00:37:36;4.47;;;0.95;;
79412;SDS011;68863;49.528;11.010;2023-03-30T00:38:36;3.47;;;0.80;;
79412;SDS011;68863;49.528;11.010;2023-03-30T00:39:36;6.55;;;0.98;;
79412;SDS011;68863;49.528;11.010;2023-03-30T00:40:37;4.95;;;1.10;;
79412;SDS011;68863;49.528;11.010;2023-03-30T00:41:37;5.32;;;1.15;;
79412;SDS011;68863;49.528;11.010;2023-03-30T00:42:38;3.22;;;0.90;;
79412;SDS011;68863;49.528;11.010;2023-03-30T00:43:58;3.30;;;0.82;;
79412;SDS011;68863;49.528;11.010;2023-03-30T00:45:18;3.53;;;0.80;;
79412;SDS011;68863;49.528;11.010;2023-03-30T00:46:21;5.40;;;1.00;;
79412;SDS011;68863;49.528;11.010;2023-03-30T00:47:22;5.22;;;1.42;;
79412;SDS011;68863;49.528;11.010;2023-03-30T00:48:25;3.85;;;0.98;;
79412;SDS011;68863;49.528;11.010;2023-03-30T00:49:33;3.22;;;0.80;;
79412;SDS011;68863;49.528;11.010;2023-03-30T00:50:38;3.90;;;0.80;;
79412;SDS011;68863;49.528;11.010;2023-03-30T00:51:43;5.25;;;1.00;;
79412;SDS011;68863;49.528;11.010;2023-03-30T00:52:43;3.28;;;0.93;;
79412;SDS011;68863;49.528;11.010;2023-03-30T00:53:46;3.75;;;1.00;;
79412;SDS011;68863;49.528;11.010;2023-03-30T00:54:49;3.67;;;0.80;;
79412;SDS011;68863;49.528;11.010;2023-03-30T00:55:52;4.38;;;0.90;;
79412;SDS011;68863;49.528;11.010;2023-03-30T00:56:53;3.80;;;0.77;;
79412;SDS011;68863;49.528;11.010;2023-03-30T00:57:54;4.80;;;0.80;;
79412;SDS011;68863;49.528;11.010;2023-03-30T00:58:55;5.30;;;0.70;;
79412;SDS011;68863;49.528;11.010;2023-03-30T00:59:55;2.92;;;0.68;;
79412;SDS011;68863;49.528;11.010;2023-03-30T01:00:57;4.18;;;1.10;;
79412;SDS011;68863;49.528;11.010;2023-03-30T01:02:00;4.30;;;0.88;;
79412;SDS011;68863;49.528;11.010;2023-03-30T01:03:02;4.45;;;1.00;;
79412;SDS011;68863;49.528;11.010;2023-03-30T01:04:08;4.65;;;0.80;;
79412;SDS011;68863;49.528;11.010;2023-03-30T01:05:09;5.07;;;0.90;;
79412;SDS011;68863;49.528;11.010;2023-03-30T01:06:11;5.15;;;0.77;;
79412;SDS011;68863;49.528;11.010;2023-03-30T01:07:13;5.32;;;0.73;;
79412;SDS011;68863;49.528;11.010;2023-03-30T01:08:14;3.63;;;0.93;;
79412;SDS011;68863;49.528;11.010;2023-03-30T01:09:19;3.80;;;0.70;;
79412;SDS011;68863;49.528;11.010;2023-03-30T01:10:19;3.05;;;0.63;;
79412;SDS011;68863;49.528;11.010;2023-03-30T01:11:20;4.25;;;0.70;;
79412;SDS011;68863;49.528;11.010;2023-03-30T01:12:21;4.32;;;0.90;;
79412;SDS011;68863;49.528;11.010;2023-03-30T01:13:22;5.18;;;1.23;;
79412;SDS011;68863;49.528;11.010;2023-03-30T01:14:22;4.13;;;0.90;;
79412;SDS011;68863;49.528;11.010;2023-03-30T01:15:23;5.65;;;1.08;;
79412;SDS011;68863;49.528;11.010;2023-03-30T01:16:29;5.93;;;0.90;;
79412;SDS011;68863;49.528;11.010;2023-03-30T01:18:04;4.88;;;1.05;;
79412;SDS011;68863;49.528;11.010;2023-03-30T01:19:27;4.25;;;0.85;;
79412;SDS011;68863;49.528;11.010;2023-03-30T01:27:13;4.20;;;0.90;;
79412;SDS011;68863;49.528;11.010;2023-03-30T01:28:24;4.10;;;0.90;;
79412;SDS011;68863;49.528;11.010;2023-03-30T01:29:37;5.05;;;1.00;;
79412;SDS011;68863;49.528;11.010;2023-03-30T01:32:34;3.67;;;0.88;;
79412;SDS011;68863;49.528;11.010;2023-03-30T01:39:20;4.57;;;0.82;;
79412;SDS011;68863;49.528;11.010;2023-03-30T01:43:02;3.78;;;0.85;;
79412;SDS011;68863;49.528;11.010;2023-03-30T01:46:38;4.35;;;1.23;;
79412;SDS011;68863;49.528;11.010;2023-03-30T01:49:21;5.05;;;0.82;;
79412;SDS011;68863;49.528;11.010;2023-03-30T01:50:39;5.20;;;0.82;;
79412;SDS011;68863;49.528;11.010;2023-03-30T01:51:43;4.82;;;0.90;;
79412;SDS011;68863;49.528;11.010;2023-03-30T01:52:59;3.72;;;0.90;;
79412;SDS011;68863;49.528;11.010;2023-03-30T01:55:42;5.32;;;0.95;;
79412;SDS011;68863;49.528;11.010;2023-03-30T01:56:53;3.67;;;0.90;;
79412;SDS011;68863;49.528;11.010;2023-03-30T01:58:04;4.22;;;0.85;;
79412;SDS011;68863;49.528;11.010;2023-03-30T02:00:24;5.28;;;0.80;;
79412;SDS011;68863;49.528;11.010;2023-03-30T02:01:26;4.07;;;1.00;;
79412;SDS011;68863;49.528;11.010;2023-03-30T02:02:32;5.03;;;1.00;;
79412;SDS011;68863;49.528;11.010;2023-03-30T02:03:35;4.28;;;0.90;;
79412;SDS011;68863;49.528;11.010;2023-03-30T02:04:39;6.18;;;1.13;;
79412;SDS011;68863;49.528;11.010;2023-03-30T02:05:41;5.43;;;1.17;;
79412;SDS011;68863;49.528;11.010;2023-03-30T02:06:46;4.85;;;0.80;;
79412;SDS011;68863;49.528;11.010;2023-03-30T02:07:54;4.57;;;1.10;;
79412;SDS011;68863;49.528;11.010;2023-03-30T02:08:59;5.60;;;0.85;;
79412;SDS011;68863;49.528;11.010;2023-03-30T02:10:02;4.38;;;1.02;;
79412;SDS011;68863;49.528;11.010;2023-03-30T02:11:05;4.88;;;0.93;;
79412;SDS011;68863;49.528;11.010;2023-03-30T02:12:07;4.18;;;0.90;;
79412;SDS011;68863;49.528;11.010;2023-03-30T02:13:09;5.65;;;0.80;;
79412;SDS011;68863;49.528;11.010;2023-03-30T02:14:12;5.90;;;0.98;;
79412;SDS011;68863;49.528;11.010;2023-03-30T02:15:16;3.28;;;0.90;;
79412;SDS011;68863;49.528;11.010;2023-03-30T02:16:20;7.28;;;1.20;;
79412;SDS011;68863;49.528;11.010;2023-03-30T02:17:23;4.28;;;0.90;;
79412;SDS011;68863;49.528;11.010;2023-03-30T02:18:27;5.03;;;1.13;;
79412;SDS011;68863;49.528;11.010;2023-03-30T02:19:28;5.07;;;1.02;;
79412;SDS011;68863;49.528;11.010;2023-03-30T02:20:29;7.75;;;1.08;;
79412;SDS011;68863;49.528;11.010;2023-03-30T02:21:32;4.30;;;1.30;;
79412;SDS011;68863;49.528;11.010;2023-03-30T02:22:32;5.25;;;0.82;;
79412;SDS011;68863;49.528;11.010;2023-03-30T02:23:34;6.03;;;1.00;;
79412;SDS011;68863;49.528;11.010;2023-03-30T02:24:38;6.45;;;1.25;;
79412;SDS011;68863;49.528;11.010;2023-03-30T02:25:39;6.15;;;0.98;;
79412;SDS011;68863;49.528;11.010;2023-03-30T02:26:40;4.18;;;0.88;;
79412;SDS011;68863;49.528;11.010;2023-03-30T02:27:40;6.05;;;1.20;;
79412;SDS011;68863;49.528;11.010;2023-03-30T02:28:41;3.60;;;0.82;;
79412;SDS011;68863;49.528;11.010;2023-03-30T02:29:42;5.47;;;1.20;;
79412;SDS011;68863;49.528;11.010;2023-03-30T02:30:44;9.13;;;1.25;;
79412;SDS011;68863;49.528;11.010;2023-03-30T02:31:47;6.32;;;0.90;;
79412;SDS011;68863;49.528;11.010;2023-03-30T02:32:53;5.43;;;1.10;;
79412;SDS011;68863;49.528;11.010;2023-03-30T02:34:07;3.85;;;0.90;;
79412;SDS011;68863;49.528;11.010;2023-03-30T02:36:40;4.75;;;1.17;;
79412;SDS011;68863;49.528;11.010;2023-03-30T02:43:22;5.32;;;1.10;;
79412;SDS011;68863;49.528;11.010;2023-03-30T02:44:31;6.72;;;1.30;;
79412;SDS011;68863;49.528;11.010;2023-03-30T02:47:18;5.57;;;1.10;;
79412;SDS011;68863;49.528;11.010;2023-03-30T02:50:04;5.22;;;0.93;;
79412;SDS011;68863;49.528;11.010;2023-03-30T02:53:59;4.80;;;0.95;;
79412;SDS011;68863;49.528;11.010;2023-03-30T02:55:18;6.07;;;1.10;;
79412;SDS011;68863;49.528;11.010;2023-03-30T02:56:26;4.65;;;1.33;;
79412;SDS011;68863;49.528;11.010;2023-03-30T02:58:01;4.55;;;0.85;;
79412;SDS011;68863;49.528;11.010;2023-03-30T02:59:09;3.78;;;1.05;;
79412;SDS011;68863;49.528;11.010;2023-03-30T03:00:14;5.63;;;0.93;;
79412;SDS011;68863;49.528;11.010;2023-03-30T03:01:26;4.35;;;1.02;;
79412;SDS011;68863;49.528;11.010;2023-03-30T03:02:34;6.03;;;1.15;;
79412;SDS011;68863;49.528;11.010;2023-03-30T03:03:40;5.55;;;1.10;;
79412;SDS011;68863;49.528;11.010;2023-03-30T03:04:43;4.95;;;1.08;;
79412;SDS011;68863;49.528;11.010;2023-03-30T03:05:45;4.72;;;1.15;;
79412;SDS011;68863;49.528;11.010;2023-03-30T03:06:47;5.82;;;1.35;;
79412;SDS011;68863;49.528;11.010;2023-03-30T03:07:51;3.47;;;0.90;;
79412;SDS011;68863;49.528;11.010;2023-03-30T03:08:53;5.13;;;1.00;;
79412;SDS011;68863;49.528;11.010;2023-03-30T03:09:54;4.80;;;1.05;;
79412;SDS011;68863;49.528;11.010;2023-03-30T03:10:54;5.57;;;0.90;;
79412;SDS011;68863;49.528;11.010;2023-03-30T03:11:55;6.10;;;1.00;;
79412;SDS011;68863;49.528;11.010;2023-03-30T03:12:55;3.97;;;1.02;;
79412;SDS011;68863;49.528;11.010;2023-03-30T03:13:56;6.85;;;1.20;;
79412;SDS011;68863;49.528;11.010;2023-03-30T03:14:56;6.00;;;0.93;;
79412;SDS011;68863;49.528;11.010;2023-03-30T03:15:56;6.05;;;1.30;;
79412;SDS011;68863;49.528;11.010;2023-03-30T03:16:57;6.45;;;0.98;;
79412;SDS011;68863;49.528;11.010;2023-03-30T03:17:57;9.60;;;1.23;;
79412;SDS011;68863;49.528;11.010;2023-03-30T03:18:57;5.37;;;0.90;;
79412;SDS011;68863;49.528;11.010;2023-03-30T03:19:57;7.10;;;1.20;;
79412;SDS011;68863;49.528;11.010;2023-03-30T03:20:58;6.53;;;1.10;;
79412;SDS011;68863;49.528;11.010;2023-03-30T03:21:58;4.50;;;0.93;;
79412;SDS011;68863;49.528;11.010;2023-03-30T03:22:58;6.07;;;1.00;;
79412;SDS011;68863;49.528;11.010;2023-03-30T03:23:58;7.23;;;1.17;;
79412;SDS011;68863;49.528;11.010;2023-03-30T03:24:59;4.68;;;0.90;;
79412;SDS011;68863;49.528;11.010;2023-03-30T03:26:01;6.65;;;1.48;;
79412;SDS011;68863;49.528;11.010;2023-03-30T03:27:03;5.10;;;1.10;;
79412;SDS011;68863;49.528;11.010;2023-03-30T03:28:03;4.85;;;1.50;;
79412;SDS011;68863;49.528;11.010;2023-03-30T03:29:04;7.15;;;0.93;;
79412;SDS011;68863;49.528;11.010;2023-03-30T03:30:04;7.00;;;1.10;;
79412;SDS011;68863;49.528;11.010;2023-03-30T03:31:05;6.32;;;1.67;;
79412;SDS011;68863;49.528;11.010;2023-03-30T03:32:05;3.80;;;0.73;;
79412;SDS011;68863;49.528;11.010;2023-03-30T03:33:06;6.88;;;1.25;;
79412;SDS011;68863;49.528;11.010;2023-03-30T03:34:07;4.68;;;1.00;;
79412;SDS011;68863;49.528;11.010;2023-03-30T03:35:07;5.33;;;1.00;;
79412;SDS011;68863;49.528;11.010;2023-03-30T03:36:08;6.45;;;1.15;;
79412;SDS011;68863;49.528;11.010;2023-03-30T03:37:10;8.75;;;1.10;;
79412;SDS011;68863;49.528;11.010;2023-03-30T03:38:12;5.68;;;0.93;;
79412;SDS011;68863;49.528;11.010;2023-03-30T03:39:12;4.95;;;0.95;;
79412;SDS011;68863;49.528;11.010;2023-03-30T03:40:13;5.03;;;1.00;;
79412;SDS011;68863;49.528;11.010;2023-03-30T03:41:13;5.38;;;1.25;;
79412;SDS011;68863;49.528;11.010;2023-03-30T03:42:13;5.68;;;1.25;;
79412;SDS011;68863;49.528;11.010;2023-03-30T03:43:14;8.13;;;1.38;;
79412;SDS011;68863;49.528;11.010;2023-03-30T03:44:14;8.38;;;1.20;;
79412;SDS011;68863;49.528;11.010;2023-03-30T03:45:15;6.72;;;1.27;;
79412;SDS011;68863;49.528;11.010;2023-03-30T03:46:15;5.03;;;1.02;;
79412;SDS011;68863;49.528;11.010;2023-03-30T03:47:15;5.60;;;1.20;;
79412;SDS011;68863;49.528;11.010;2023-03-30T03:48:16;7.70;;;1.10;;
79412;SDS011;68863;49.528;11.010;2023-03-30T03:49:18;4.93;;;1.17;;
79412;SDS011;68863;49.528;11.010;2023-03-30T03:50:18;8.90;;;1.52;;
79412;SDS011;68863;49.528;11.010;2023-03-30T03:51:19;4.18;;;1.10;;
79412;SDS011;68863;49.528;11.010;2023-03-30T03:52:19;7.18;;;1.30;;
79412;SDS011;68863;49.528;11.010;2023-03-30T03:53:19;7.97;;;1.17;;
79412;SDS011;68863;49.528;11.010;2023-03-30T03:54:20;4.93;;;0.80;;
79412;SDS011;68863;49.528;11.010;2023-03-30T03:55:21;7.22;;;1.30;;
79412;SDS011;68863;49.528;11.010;2023-03-30T03:56:22;6.53;;;1.60;;
79412;SDS011;68863;49.528;11.010;2023-03-30T03:57:24;5.20;;;1.50;;
79412;SDS011;68863;49.528;11.010;2023-03-30T03:58:24;5.35;;;1.35;;
79412;SDS011;68863;49.528;11.010;2023-03-30T03:59:25;4.07;;;1.05;;
79412;SDS011;68863;49.528;11.010;2023-03-30T04:00:25;4.63;;;1.40;;
79412;SDS011;68863;49.528;11.010;2023-03-30T04:01:26;8.48;;;1.30;;
79412;SDS011;68863;49.528;11.010;2023-03-30T04:02:28;4.57;;;1.17;;
79412;SDS011;68863;49.528;11.010;2023-03-30T04:03:29;6.55;;;1.10;;
79412;SDS011;68863;49.528;11.010;2023-03-30T04:04:29;5.63;;;1.27;;
79412;SDS011;68863;49.528;11.010;2023-03-30T04:05:30;6.68;;;1.23;;
79412;SDS011;68863;49.528;11.010;2023-03-30T04:06:30;6.57;;;1.30;;
79412;SDS011;68863;49.528;11.010;2023-03-30T04:07:31;4.35;;;1.40;;
79412;SDS011;68863;49.528;11.010;2023-03-30T04:08:33;7.72;;;1.63;;
79412;SDS011;68863;49.528;11.010;2023-03-30T04:09:33;7.88;;;1.83;;
79412;SDS011;68863;49.528;11.010;2023-03-30T04:10:34;8.80;;;1.60;;
79412;SDS011;68863;49.528;11.010;2023-03-30T04:11:36;6.65;;;2.22;;
79412;SDS011;68863;49.528;11.010;2023-03-30T04:12:36;7.72;;;1.45;;
79412;SDS011;68863;49.528;11.010;2023-03-30T04:13:38;9.57;;;1.73;;
79412;SDS011;68863;49.528;11.010;2023-03-30T04:14:38;8.63;;;1.80;;
79412;SDS011;68863;49.528;11.010;2023-03-30T04:15:39;8.25;;;1.10;;
79412;SDS011;68863;49.528;11.010;2023-03-30T04:16:39;8.32;;;1.60;;
79412;SDS011;68863;49.528;11.010;2023-03-30T04:17:39;7.67;;;1.40;;
79412;SDS011;68863;49.528;11.010;2023-03-30T04:18:40;6.75;;;1.80;;
79412;SDS011;68863;49.528;11.010;2023-03-30T04:19:40;8.85;;;1.80;;
79412;SDS011;68863;49.528;11.010;2023-03-30T04:20:40;11.40;;;2.03;;
79412;SDS011;68863;49.528;11.010;2023-03-30T04:21:41;7.63;;;1.77;;
79412;SDS011;68863;49.528;11.010;2023-03-30T04:22:45;8.05;;;1.50;;
79412;SDS011;68863;49.528;11.010;2023-03-30T04:23:49;6.78;;;1.58;;
79412;SDS011;68863;49.528;11.010;2023-03-30T04:24:49;10.80;;;2.03;;
79412;SDS011;68863;49.528;11.010;2023-03-30T04:25:51;8.45;;;1.40;;
79412;SDS011;68863;49.528;11.010;2023-03-30T04:26:51;8.55;;;1.30;;
79412;SDS011;68863;49.528;11.010;2023-03-30T04:27:52;8.15;;;1.15;;
79412;SDS011;68863;49.528;11.010;2023-03-30T04:28:54;8.05;;;1.83;;
79412;SDS011;68863;49.528;11.010;2023-03-30T04:29:55;7.50;;;1.40;;
79412;SDS011;68863;49.528;11.010;2023-03-30T04:30:57;6.18;;;1.23;;
79412;SDS011;68863;49.528;11.010;2023-03-30T04:31:58;8.82;;;1.17;;
79412;SDS011;68863;49.528;11.010;2023-03-30T04:33:02;4.65;;;1.00;;
79412;SDS011;68863;49.528;11.010;2023-03-30T04:34:03;6.50;;;1.33;;
79412;SDS011;68863;49.528;11.010;2023-03-30T04:35:04;10.32;;;1.17;;
79412;SDS011;68863;49.528;11.010;2023-03-30T04:36:05;7.78;;;1.27;;
79412;SDS011;68863;49.528;11.010;2023-03-30T04:37:05;5.40;;;1.10;;
79412;SDS011;68863;49.528;11.010;2023-03-30T04:38:06;6.13;;;1.00;;
79412;SDS011;68863;49.528;11.010;2023-03-30T04:39:06;5.95;;;1.23;;
79412;SDS011;68863;49.528;11.010;2023-03-30T04:40:07;8.18;;;1.48;;
79412;SDS011;68863;49.528;11.010;2023-03-30T04:41:12;6.78;;;1.23;;
79412;SDS011;68863;49.528;11.010;2023-03-30T04:42:13;8.57;;;1.52;;
79412;SDS011;68863;49.528;11.010;2023-03-30T04:43:15;7.20;;;1.30;;
79412;SDS011;68863;49.528;11.010;2023-03-30T04:44:18;8.15;;;1.67;;
79412;SDS011;68863;49.528;11.010;2023-03-30T04:45:19;6.88;;;1.20;;
79412;SDS011;68863;49.528;11.010;2023-03-30T04:46:20;8.75;;;1.50;;
79412;SDS011;68863;49.528;11.010;2023-03-30T04:47:20;10.43;;;1.63;;
79412;SDS011;68863;49.528;11.010;2023-03-30T04:48:21;6.03;;;1.17;;
79412;SDS011;68863;49.528;11.010;2023-03-30T04:49:22;6.75;;;1.05;;
79412;SDS011;68863;49.528;11.010;2023-03-30T04:50:23;8.80;;;1.60;;
79412;SDS011;68863;49.528;11.010;2023-03-30T04:51:23;9.52;;;1.85;;
79412;SDS011;68863;49.528;11.010;2023-03-30T04:52:23;6.38;;;1.40;;
79412;SDS011;68863;49.528;11.010;2023-03-30T04:53:23;6.70;;;1.40;;
79412;SDS011;68863;49.528;11.010;2023-03-30T04:54:24;10.83;;;1.77;;
79412;SDS011;68863;49.528;11.010;2023-03-30T04:55:24;9.23;;;1.48;;
79412;SDS011;68863;49.528;11.010;2023-03-30T04:56:24;9.40;;;1.40;;
79412;SDS011;68863;49.528;11.010;2023-03-30T04:57:25;8.88;;;1.85;;
79412;SDS011;68863;49.528;11.010;2023-03-30T04:58:25;8.10;;;1.52;;
79412;SDS011;68863;49.528;11.010;2023-03-30T04:59:25;9.75;;;1.20;;
79412;SDS011;68863;49.528;11.010;2023-03-30T05:00:26;9.80;;;1.87;;
79412;SDS011;68863;49.528;11.010;2023-03-30T05:01:26;7.93;;;1.88;;
79412;SDS011;68863;49.528;11.010;2023-03-30T05:02:26;7.88;;;1.52;;
79412;SDS011;68863;49.528;11.010;2023-03-30T05:03:27;8.68;;;1.20;;
79412;SDS011;68863;49.528;11.010;2023-03-30T05:04:27;6.47;;;1.05;;
79412;SDS011;68863;49.528;11.010;2023-03-30T05:05:27;5.75;;;1.10;;
79412;SDS011;68863;49.528;11.010;2023-03-30T05:06:28;7.43;;;1.57;;
79412;SDS011;68863;49.528;11.010;2023-03-30T05:07:28;7.43;;;1.65;;
79412;SDS011;68863;49.528;11.010;2023-03-30T05:08:28;10.07;;;1.80;;
79412;SDS011;68863;49.528;11.010;2023-03-30T05:09:29;10.80;;;1.33;;
79412;SDS011;68863;49.528;11.010;2023-03-30T05:10:29;9.57;;;1.60;;
79412;SDS011;68863;49.528;11.010;2023-03-30T05:11:30;5.25;;;1.17;;
79412;SDS011;68863;49.528;11.010;2023-03-30T05:12:30;11.67;;;2.00;;
79412;SDS011;68863;49.528;11.010;2023-03-30T05:13:30;6.28;;;1.30;;
79412;SDS011;68863;49.528;11.010;2023-03-30T05:14:31;8.98;;;1.50;;
79412;SDS011;68863;49.528;11.010;2023-03-30T05:15:31;10.30;;;1.48;;
79412;SDS011;68863;49.528;11.010;2023-03-30T05:16:31;7.50;;;2.13;;
79412;SDS011;68863;49.528;11.010;2023-03-30T05:17:32;10.90;;;2.50;;
79412;SDS011;68863;49.528;11.010;2023-03-30T05:18:33;8.45;;;2.50;;
79412;SDS011;68863;49.528;11.010;2023-03-30T05:19:33;7.78;;;1.88;;
79412;SDS011;68863;49.528;11.010;2023-03-30T05:20:33;7.50;;;1.30;;
79412;SDS011;68863;49.528;11.010;2023-03-30T05:21:33;12.88;;;2.22;;
79412;SDS011;68863;49.528;11.010;2023-03-30T05:22:34;9.65;;;2.20;;
79412;SDS011;68863;49.528;11.010;2023-03-30T05:23:35;11.10;;;2.55;;
79412;SDS011;68863;49.528;11.010;2023-03-30T05:24:35;8.55;;;2.20;;
79412;SDS011;68863;49.528;11.010;2023-03-30T05:25:36;8.52;;;1.77;;
79412;SDS011;68863;49.528;11.010;2023-03-30T05:26:36;9.80;;;1.92;;
79412;SDS011;68863;49.528;11.010;2023-03-30T05:27:36;7.73;;;1.90;;
79412;SDS011;68863;49.528;11.010;2023-03-30T05:28:36;8.20;;;1.83;;
79412;SDS011;68863;49.528;11.010;2023-03-30T05:29:37;8.27;;;1.80;;
79412;SDS011;68863;49.528;11.010;2023-03-30T05:30:37;9.27;;;1.83;;
79412;SDS011;68863;49.528;11.010;2023-03-30T05:31:37;8.88;;;1.85;;
79412;SDS011;68863;49.528;11.010;2023-03-30T05:32:38;10.60;;;1.83;;
79412;SDS011;68863;49.528;11.010;2023-03-30T05:33:38;9.85;;;1.80;;
79412;SDS011;68863;49.528;11.010;2023-03-30T05:34:39;11.57;;;1.90;;
79412;SDS011;68863;49.528;11.010;2023-03-30T05:35:39;6.30;;;1.45;;
79412;SDS011;68863;49.528;11.010;2023-03-30T05:36:40;8.23;;;1.52;;
79412;SDS011;68863;49.528;11.010;2023-03-30T05:37:40;11.15;;;2.03;;
79412;SDS011;68863;49.528;11.010;2023-03-30T05:38:41;9.85;;;2.00;;
79412;SDS011;68863;49.528;11.010;2023-03-30T05:39:41;12.18;;;1.95;;
79412;SDS011;68863;49.528;11.010;2023-03-30T05:40:41;9.80;;;1.80;;
79412;SDS011;68863;49.528;11.010;2023-03-30T05:41:43;9.75;;;1.77;;
79412;SDS011;68863;49.528;11.010;2023-03-30T05:42:44;11.30;;;2.03;;
79412;SDS011;68863;49.528;11.010;2023-03-30T05:43:44;12.93;;;1.55;;
79412;SDS011;68863;49.528;11.010;2023-03-30T05:44:44;11.93;;;2.25;;
79412;SDS011;68863;49.528;11.010;2023-03-30T05:45:45;11.77;;;2.30;;
79412;SDS011;68863;49.528;11.010;2023-03-30T05:46:45;11.88;;;2.05;;
79412;SDS011;68863;49.528;11.010;2023-03-30T05:47:45;10.10;;;1.80;;
79412;SDS011;68863;49.528;11.010;2023-03-30T05:48:46;10.90;;;2.30;;
79412;SDS011;68863;49.528;11.010;2023-03-30T05:49:46;11.70;;;2.30;;
79412;SDS011;68863;49.528;11.010;2023-03-30T05:50:46;9.10;;;2.10;;
79412;SDS011;68863;49.528;11.010;2023-03-30T05:51:47;10.32;;;2.40;;
79412;SDS011;68863;49.528;11.010;2023-03-30T05:52:47;10.47;;;1.87;;
79412;SDS011;68863;49.528;11.010;2023-03-30T05:53:48;7.40;;;1.85;;
79412;SDS011;68863;49.528;11.010;2023-03-30T05:54:48;7.37;;;1.67;;
79412;SDS011;68863;49.528;11.010;2023-03-30T05:55:49;11.37;;;2.10;;
79412;SDS011;68863;49.528;11.010;2023-03-30T05:56:50;10.85;;;2.33;;
79412;SDS011;68863;49.528;11.010;2023-03-30T05:57:50;8.82;;;1.77;;
79412;SDS011;68863;49.528;11.010;2023-03-30T05:58:50;8.60;;;2.33;;
79412;SDS011;68863;49.528;11.010;2023-03-30T05:59:50;9.95;;;2.13;;
79412;SDS011;68863;49.528;11.010;2023-03-30T06:00:51;12.90;;;3.00;;
79412;SDS011;68863;49.528;11.010;2023-03-30T06:01:53;11.07;;;2.50;;
79412;SDS011;68863;49.528;11.010;2023-03-30T06:02:54;12.30;;;2.53;;
79412;SDS011;68863;49.528;11.010;2023-03-30T06:03:55;10.47;;;2.80;;
79412;SDS011;68863;49.528;11.010;2023-03-30T06:04:55;12.77;;;2.38;;
79412;SDS011;68863;49.528;11.010;2023-03-30T06:05:56;9.02;;;2.03;;
79412;SDS011;68863;49.528;11.010;2023-03-30T06:06:57;10.75;;;1.92;;
79412;SDS011;68863;49.528;11.010;2023-03-30T06:07:58;10.05;;;2.25;;
79412;SDS011;68863;49.528;11.010;2023-03-30T06:08:59;10.07;;;2.28;;
79412;SDS011;68863;49.528;11.010;2023-03-30T06:10:01;10.82;;;2.53;;
79412;SDS011;68863;49.528;11.010;2023-03-30T06:11:02;10.13;;;1.77;;
79412;SDS011;68863;49.528;11.010;2023-03-30T06:12:03;7.97;;;2.15;;
79412;SDS011;68863;49.528;11.010;2023-03-30T06:13:04;9.40;;;1.80;;
79412;SDS011;68863;49.528;11.010;2023-03-30T06:14:04;10.43;;;2.55;;
79412;SDS011;68863;49.528;11.010;2023-03-30T06:15:04;10.35;;;1.85;;
79412;SDS011;68863;49.528;11.010;2023-03-30T06:16:08;7.05;;;1.65;;
79412;SDS011;68863;49.528;11.010;2023-03-30T06:17:08;9.57;;;2.63;;
79412;SDS011;68863;49.528;11.010;2023-03-30T06:19:11;11.00;;;2.10;;
79412;SDS011;68863;49.528;11.010;2023-03-30T06:20:13;8.05;;;2.30;;
79412;SDS011;68863;49.528;11.010;2023-03-30T06:21:13;7.35;;;2.13;;
79412;SDS011;68863;49.528;11.010;2023-03-30T06:22:14;8.07;;;2.00;;
79412;SDS011;68863;49.528;11.010;2023-03-30T06:23:14;7.63;;;1.77;;
79412;SDS011;68863;49.528;11.010;2023-03-30T06:24:15;9.25;;;1.80;;
79412;SDS011;68863;49.528;11.010;2023-03-30T06:25:15;10.10;;;2.20;;
79412;SDS011;68863;49.528;11.010;2023-03-30T06:26:17;10.73;;;1.77;;
79412;SDS011;68863;49.528;11.010;2023-03-30T06:27:17;8.37;;;1.70;;
79412;SDS011;68863;49.528;11.010;2023-03-30T06:28:18;8.75;;;1.95;;
79412;SDS011;68863;49.528;11.010;2023-03-30T06:29:19;8.52;;;2.05;;
79412;SDS011;68863;49.528;11.010;2023-03-30T06:30:19;10.23;;;2.17;;
79412;SDS011;68863;49.528;11.010;2023-03-30T06:31:19;10.05;;;2.15;;
79412;SDS011;68863;49.528;11.010;2023-03-30T06:32:20;8.93;;;1.90;;
79412;SDS011;68863;49.528;11.010;2023-03-30T06:33:21;9.85;;;2.33;;
79412;SDS011;68863;49.528;11.010;2023-03-30T06:34:21;9.32;;;2.10;;
79412;SDS011;68863;49.528;11.010;2023-03-30T06:35:22;10.20;;;1.80;;
79412;SDS011;68863;49.528;11.010;2023-03-30T06:36:22;7.93;;;1.73;;
79412;SDS011;68863;49.528;11.010;2023-03-30T06:37:22;12.90;;;1.80;;
79412;SDS011;68863;49.528;11.010;2023-03-30T06:38:23;11.93;;;2.40;;
79412;SDS011;68863;49.528;11.010;2023-03-30T06:39:23;12.85;;;2.72;;
79412;SDS011;68863;49.528;11.010;2023-03-30T06:40:24;6.03;;;2.05;;
79412;SDS011;68863;49.528;11.010;2023-03-30T06:41:24;11.98;;;2.72;;
79412;SDS011;68863;49.528;11.010;2023-03-30T06:42:26;9.82;;;1.90;;
79412;SDS011;68863;49.528;11.010;2023-03-30T06:43:26;10.48;;;1.85;;
79412;SDS011;68863;49.528;11.010;2023-03-30T06:44:27;9.03;;;2.00;;
79412;SDS011;68863;49.528;11.010;2023-03-30T06:45:27;13.27;;;2.90;;
79412;SDS011;68863;49.528;11.010;2023-03-30T06:46:28;11.93;;;2.47;;